createdAt,value
2022-10-13T00:03:49.939Z,101330.00
2022-10-13T00:09:55.019Z,101327.00
2022-10-13T00:15:57.165Z,101319.00
2022-10-13T00:22:03.076Z,101319.00
2022-10-13T00:28:05.396Z,101324.00
2022-10-13T00:34:07.823Z,101321.00
2022-10-13T00:40:10.326Z,101315.00
2022-10-13T00:46:12.376Z,101310.00
2022-10-13T00:52:16.867Z,101311.00
2022-10-13T00:58:23.722Z,101312.00
2022-10-13T01:04:31.087Z,101313.00
2022-10-13T01:10:42.553Z,101322.00
2022-10-13T01:16:53.764Z,101327.00
2022-10-13T01:23:33.045Z,101330.00
2022-10-13T01:30:14.889Z,101324.00
2022-10-13T01:36:21.570Z,101330.00
2022-10-13T01:42:30.687Z,101330.00
2022-10-13T01:48:36.386Z,101326.00
2022-10-13T01:54:38.604Z,101333.00
2022-10-13T02:00:48.777Z,101316.00
2022-10-13T02:06:53.289Z,101313.00
2022-10-13T02:13:07.561Z,101308.00
2022-10-13T02:19:13.136Z,101306.00
2022-10-13T02:25:15.416Z,101309.00
2022-10-13T02:31:17.537Z,101306.00
2022-10-13T02:37:19.799Z,101306.00
2022-10-13T02:43:21.874Z,101302.00
2022-10-13T02:49:24.095Z,101302.00
2022-10-13T02:55:26.312Z,101301.00
2022-10-13T03:01:31.346Z,101305.00
2022-10-13T03:07:33.462Z,101302.00
2022-10-13T03:13:37.533Z,101308.00
2022-10-13T03:19:41.598Z,101310.00
2022-10-13T03:25:45.836Z,101319.00
2022-10-13T03:31:47.899Z,101306.00
2022-10-13T03:37:49.974Z,101311.00
2022-10-13T03:43:52.428Z,101292.00
2022-10-13T03:49:55.614Z,101309.00
2022-10-13T03:55:57.902Z,101302.00
2022-10-13T04:02:00.019Z,101308.00
2022-10-13T04:08:02.202Z,101306.00
2022-10-13T04:14:04.286Z,101317.00
2022-10-13T04:20:07.040Z,101299.00
2022-10-13T04:26:14.519Z,101306.00
2022-10-13T04:32:16.973Z,101302.00
2022-10-13T04:38:19.243Z,101306.00
2022-10-13T04:44:21.488Z,101303.00
2022-10-13T04:50:23.641Z,101302.00
2022-10-13T04:56:33.216Z,101302.00
2022-10-13T05:02:37.311Z,101293.00
2022-10-13T05:08:40.107Z,101233.00
2022-10-13T05:14:42.139Z,101189.00
2022-10-13T05:20:44.357Z,101188.00
2022-10-13T05:26:46.458Z,101176.00
2022-10-13T05:32:53.030Z,101269.00
2022-10-13T05:39:01.901Z,101308.00
2022-10-13T05:45:04.481Z,101318.00
2022-10-13T05:51:19.596Z,101324.00
2022-10-13T05:57:33.621Z,101307.00
2022-10-13T06:03:36.387Z,101319.00
2022-10-13T06:09:38.785Z,101331.00
2022-10-13T06:15:41.238Z,101337.00
2022-10-13T06:21:43.665Z,101220.00
2022-10-13T06:27:46.240Z,101317.00
2022-10-13T06:33:48.354Z,101205.00
2022-10-13T06:39:50.843Z,101186.00
2022-10-13T06:45:52.845Z,101201.00
2022-10-13T06:51:55.011Z,101191.00
2022-10-13T06:57:57.139Z,101214.00
2022-10-13T07:03:59.370Z,101235.00
2022-10-13T07:10:01.488Z,101215.00
2022-10-13T07:16:04.967Z,101213.00
2022-10-13T07:22:07.183Z,101209.00
2022-10-13T07:28:09.300Z,101219.00
2022-10-13T07:34:11.382Z,101206.00
2022-10-13T07:40:13.548Z,101229.00
2022-10-13T07:46:15.971Z,101216.00
2022-10-13T07:52:18.573Z,101213.00
2022-10-13T07:58:20.762Z,101220.00
2022-10-13T08:04:22.831Z,101224.00
2022-10-13T08:10:25.002Z,101289.00
2022-10-13T08:16:28.627Z,101288.00
2022-10-13T08:22:30.538Z,101339.00
2022-10-13T08:28:32.558Z,101324.00
2022-10-13T08:34:36.657Z,101297.00
2022-10-13T08:40:39.654Z,101329.00
2022-10-13T08:47:00.203Z,101326.00
2022-10-13T08:53:03.868Z,101327.00
2022-10-13T08:59:06.964Z,101299.00
2022-10-13T09:05:16.581Z,101329.00
2022-10-13T09:11:18.882Z,101316.00
2022-10-13T09:17:26.861Z,101322.00
2022-10-13T09:23:28.870Z,101313.00
2022-10-13T09:29:30.938Z,101301.00
2022-10-13T09:35:35.375Z,101307.00
2022-10-13T09:41:37.774Z,101299.00
2022-10-13T09:47:39.841Z,101296.00
2022-10-13T09:53:47.432Z,101289.00
2022-10-13T10:00:19.068Z,101290.00
2022-10-13T10:06:23.999Z,101284.00
2022-10-13T10:12:36.170Z,101277.00
2022-10-13T10:19:01.832Z,101266.00
2022-10-13T10:25:30.173Z,101262.00
2022-10-13T10:31:40.976Z,101257.00
2022-10-13T10:38:01.217Z,101245.00
2022-10-13T10:44:06.859Z,101248.00
2022-10-13T10:50:14.150Z,101224.00
2022-10-13T10:56:25.812Z,101224.00
2022-10-13T11:02:45.478Z,101171.00
2022-10-13T11:08:49.698Z,101148.00
2022-10-13T11:15:14.634Z,101140.00
2022-10-13T11:21:16.764Z,101136.00
2022-10-13T11:27:25.225Z,101110.00
2022-10-13T11:33:39.680Z,101108.00
2022-10-13T11:39:52.372Z,101102.00
2022-10-13T11:46:06.424Z,101171.00
2022-10-13T11:52:12.690Z,101153.00
2022-10-13T11:58:23.315Z,101166.00
2022-10-13T12:04:27.842Z,101158.00
2022-10-13T12:10:36.263Z,101164.00
2022-10-13T12:16:53.826Z,101159.00
2022-10-13T12:22:57.214Z,101150.00
2022-10-13T12:29:03.867Z,101155.00
2022-10-13T12:35:27.547Z,101146.00
2022-10-13T12:41:33.068Z,101147.00
2022-10-13T12:47:44.210Z,101136.00
2022-10-13T12:53:47.748Z,101127.00
2022-10-13T12:59:50.220Z,101123.00
2022-10-13T13:06:08.234Z,101123.00
2022-10-13T13:12:13.463Z,101123.00
2022-10-13T13:18:25.335Z,101121.00
2022-10-13T13:24:39.496Z,101109.00
2022-10-13T13:30:44.821Z,101120.00
2022-10-13T13:36:49.599Z,101120.00
2022-10-13T13:42:52.431Z,101120.00
2022-10-13T13:48:54.527Z,101113.00
2022-10-13T13:54:56.697Z,101112.00
2022-10-13T14:01:00.038Z,101106.00
2022-10-13T14:07:02.222Z,101105.00
2022-10-13T14:13:04.475Z,101103.00
2022-10-13T14:19:06.598Z,101100.00
2022-10-13T14:25:09.384Z,101105.00
2022-10-13T14:31:12.459Z,101102.00
2022-10-13T14:37:15.884Z,101090.00
2022-10-13T14:43:18.031Z,101075.00
2022-10-13T14:49:20.217Z,101103.00
2022-10-13T14:55:23.494Z,101101.00
2022-10-13T15:01:25.678Z,101102.00
2022-10-13T15:07:27.815Z,101106.00
2022-10-13T15:13:30.578Z,101115.00
2022-10-13T15:19:36.832Z,101107.00
2022-10-13T15:25:39.872Z,101113.00
2022-10-13T15:31:43.159Z,101120.00
2022-10-13T15:37:45.449Z,101114.00
2022-10-13T15:43:48.296Z,101113.00
2022-10-13T15:49:50.358Z,101129.00
2022-10-13T15:55:52.513Z,101139.00
2022-10-13T16:01:54.557Z,101129.00
2022-10-13T16:07:56.672Z,101126.00
2022-10-13T16:13:59.103Z,101120.00
2022-10-13T16:20:01.578Z,101124.00
2022-10-13T16:26:05.339Z,101120.00
2022-10-13T16:32:07.454Z,101119.00
2022-10-13T16:38:09.762Z,101116.00
2022-10-13T16:44:13.561Z,101114.00
2022-10-13T16:50:15.495Z,101114.00
2022-10-13T16:56:22.330Z,101110.00
2022-10-13T17:02:24.717Z,101107.00
2022-10-13T17:08:26.898Z,101099.00
2022-10-13T17:14:28.993Z,101108.00
2022-10-13T17:20:31.079Z,101104.00
2022-10-13T17:26:33.158Z,101109.00
2022-10-13T17:32:39.233Z,101112.00
2022-10-13T17:38:42.416Z,101108.00
2022-10-13T17:44:44.522Z,101107.00
2022-10-13T17:50:46.602Z,101103.00
2022-10-13T17:56:49.033Z,101095.00
2022-10-13T18:02:51.568Z,101093.00
2022-10-13T18:08:53.853Z,101104.00
2022-10-13T18:14:56.154Z,101111.00
2022-10-13T18:21:00.783Z,101131.00
2022-10-13T18:27:02.844Z,101120.00
2022-10-13T18:33:05.158Z,101120.00
2022-10-13T18:39:19.345Z,101136.00
2022-10-13T18:45:24.613Z,101138.00
2022-10-13T18:51:29.966Z,101141.00
2022-10-13T18:57:35.381Z,101135.00
2022-10-13T19:03:39.828Z,101141.00
2022-10-13T19:09:42.093Z,101146.00
2022-10-13T19:15:44.434Z,101143.00
2022-10-13T19:21:46.596Z,101137.00
2022-10-13T19:27:48.736Z,101146.00
2022-10-13T19:33:52.703Z,101151.00
2022-10-13T19:39:54.787Z,101164.00
2022-10-13T19:45:59.778Z,101167.00
2022-10-13T19:52:02.243Z,101176.00
2022-10-13T19:58:04.387Z,101172.00
2022-10-13T20:04:10.109Z,101157.00
2022-10-13T20:10:13.593Z,101159.00
2022-10-13T20:16:18.660Z,101173.00
2022-10-13T20:22:21.089Z,101163.00
2022-10-13T20:28:23.152Z,101155.00
2022-10-13T20:34:25.360Z,101160.00
2022-10-13T20:40:27.463Z,101152.00
2022-10-13T20:46:29.726Z,101153.00
2022-10-13T20:52:31.959Z,101144.00
2022-10-13T20:58:35.685Z,101133.00
2022-10-13T21:04:37.792Z,101130.00
2022-10-13T21:10:39.923Z,101133.00
2022-10-13T21:16:42.134Z,101125.00
2022-10-13T21:22:44.431Z,101123.00
2022-10-13T21:28:46.469Z,101130.00
2022-10-13T21:34:49.184Z,101122.00
2022-10-13T21:40:54.267Z,101119.00
2022-10-13T21:46:56.312Z,101120.00
2022-10-13T21:52:58.593Z,101109.00
2022-10-13T21:59:01.526Z,101105.00
2022-10-13T22:05:03.911Z,101099.00
2022-10-13T22:11:08.040Z,101107.00
2022-10-13T22:17:10.301Z,101094.00
2022-10-13T22:23:12.364Z,101093.00
2022-10-13T22:29:20.783Z,101103.00
2022-10-13T22:35:23.122Z,101103.00
2022-10-13T22:41:25.854Z,101103.00
2022-10-13T22:47:27.714Z,101096.00
2022-10-13T22:53:29.768Z,101102.00
2022-10-13T22:59:31.944Z,101092.00
2022-10-13T23:05:34.107Z,101093.00
2022-10-13T23:11:36.462Z,101093.00
2022-10-13T23:17:40.560Z,101091.00
2022-10-13T23:23:42.935Z,101096.00
2022-10-13T23:29:45.122Z,101090.00
2022-10-13T23:35:55.012Z,101099.00
2022-10-13T23:41:58.010Z,101100.00
2022-10-13T23:48:00.329Z,101094.00
2022-10-13T23:54:03.852Z,101104.00
